sensor_id;sensor_type;location;lat;lon;timestamp;temperature;humidity
8261;DHT22;64115;50.170;8.242;2023-02-23T00:01:35;7.60;99.90
8261;DHT22;64115;50.170;8.242;2023-02-23T00:04:03;7.50;99.90
8261;DHT22;64115;50.170;8.242;2023-02-23T00:06:31;7.50;99.90
8261;DHT22;64115;50.170;8.242;2023-02-23T00:09:00;7.60;99.90
8261;DHT22;64115;50.170;8.242;2023-02-23T00:11:31;7.60;99.90
8261;DHT22;64115;50.170;8.242;2023-02-23T00:13:58;7.60;99.90
8261;DHT22;64115;50.170;8.242;2023-02-23T00:16:25;7.60;99.90
8261;DHT22;64115;50.170;8.242;2023-02-23T00:18:56;7.60;99.90
8261;DHT22;64115;50.170;8.242;2023-02-23T00:21:26;7.50;99.90
8261;DHT22;64115;50.170;8.242;2023-02-23T00:23:56;7.50;99.90
8261;DHT22;64115;50.170;8.242;2023-02-23T00:26:25;7.50;99.90
8261;DHT22;64115;50.170;8.242;2023-02-23T00:28:55;7.50;99.90
8261;DHT22;64115;50.170;8.242;2023-02-23T00:31:24;7.50;99.90
8261;DHT22;64115;50.170;8.242;2023-02-23T00:33:53;7.50;99.90
8261;DHT22;64115;50.170;8.242;2023-02-23T00:36:22;7.60;99.90
8261;DHT22;64115;50.170;8.242;2023-02-23T00:38:52;7.60;99.90
8261;DHT22;64115;50.170;8.242;2023-02-23T00:41:19;7.60;99.90
8261;DHT22;64115;50.170;8.242;2023-02-23T00:43:49;7.60;99.90
8261;DHT22;64115;50.170;8.242;2023-02-23T00:46:21;7.60;99.90
8261;DHT22;64115;50.170;8.242;2023-02-23T00:48:49;7.60;99.90
8261;DHT22;64115;50.170;8.242;2023-02-23T00:51:18;7.60;99.90
8261;DHT22;64115;50.170;8.242;2023-02-23T00:53:45;7.60;99.90
8261;DHT22;64115;50.170;8.242;2023-02-23T00:56:14;7.60;99.90
8261;DHT22;64115;50.170;8.242;2023-02-23T00:58:41;7.70;99.90
8261;DHT22;64115;50.170;8.242;2023-02-23T01:01:11;7.70;99.90
8261;DHT22;64115;50.170;8.242;2023-02-23T01:03:40;7.70;99.90
8261;DHT22;64115;50.170;8.242;2023-02-23T01:06:10;7.80;99.90
8261;DHT22;64115;50.170;8.242;2023-02-23T01:08:40;7.80;99.90
8261;DHT22;64115;50.170;8.242;2023-02-23T01:11:10;7.80;99.90
8261;DHT22;64115;50.170;8.242;2023-02-23T01:13:39;7.70;99.90
8261;DHT22;64115;50.170;8.242;2023-02-23T01:16:08;7.70;99.90
8261;DHT22;64115;50.170;8.242;2023-02-23T01:18:36;7.70;99.90
8261;DHT22;64115;50.170;8.242;2023-02-23T01:21:05;7.70;99.90
8261;DHT22;64115;50.170;8.242;2023-02-23T01:23:40;7.70;99.90
8261;DHT22;64115;50.170;8.242;2023-02-23T01:26:14;7.70;99.90
8261;DHT22;64115;50.170;8.242;2023-02-23T01:28:42;7.70;99.90
8261;DHT22;64115;50.170;8.242;2023-02-23T01:31:09;7.70;99.90
8261;DHT22;64115;50.170;8.242;2023-02-23T01:33:36;7.70;99.90
8261;DHT22;64115;50.170;8.242;2023-02-23T01:36:03;7.70;99.90
8261;DHT22;64115;50.170;8.242;2023-02-23T01:38:30;7.70;99.90
8261;DHT22;64115;50.170;8.242;2023-02-23T01:40:59;7.70;99.90
8261;DHT22;64115;50.170;8.242;2023-02-23T01:43:26;7.70;99.90
8261;DHT22;64115;50.170;8.242;2023-02-23T01:45:54;7.70;99.90
8261;DHT22;64115;50.170;8.242;2023-02-23T01:48:24;7.70;99.90
8261;DHT22;64115;50.170;8.242;2023-02-23T01:50:55;7.70;99.90
8261;DHT22;64115;50.170;8.242;2023-02-23T01:53:24;7.70;99.90
8261;DHT22;64115;50.170;8.242;2023-02-23T01:55:56;7.70;99.90
8261;DHT22;64115;50.170;8.242;2023-02-23T01:58:26;7.70;99.90
8261;DHT22;64115;50.170;8.242;2023-02-23T02:00:56;7.70;99.90
8261;DHT22;64115;50.170;8.242;2023-02-23T02:03:30;7.70;99.90
8261;DHT22;64115;50.170;8.242;2023-02-23T02:06:02;7.70;99.90
8261;DHT22;64115;50.170;8.242;2023-02-23T02:08:31;7.70;99.90
8261;DHT22;64115;50.170;8.242;2023-02-23T02:10:59;7.80;99.90
8261;DHT22;64115;50.170;8.242;2023-02-23T02:13:35;7.70;99.90
8261;DHT22;64115;50.170;8.242;2023-02-23T02:16:29;7.70;99.90
8261;DHT22;64115;50.170;8.242;2023-02-23T02:19:30;7.60;99.90
8261;DHT22;64115;50.170;8.242;2023-02-23T02:22:26;7.60;99.90
8261;DHT22;64115;50.170;8.242;2023-02-23T02:25:21;7.60;99.90
8261;DHT22;64115;50.170;8.242;2023-02-23T02:34:21;7.50;99.90
8261;DHT22;64115;50.170;8.242;2023-02-23T02:40:03;7.50;99.90
8261;DHT22;64115;50.170;8.242;2023-02-23T02:42:59;7.50;99.90
8261;DHT22;64115;50.170;8.242;2023-02-23T02:45:39;7.50;99.90
8261;DHT22;64115;50.170;8.242;2023-02-23T02:48:15;7.50;99.90
8261;DHT22;64115;50.170;8.242;2023-02-23T02:50:45;7.50;99.90
8261;DHT22;64115;50.170;8.242;2023-02-23T02:53:21;7.50;99.90
8261;DHT22;64115;50.170;8.242;2023-02-23T02:55:53;7.60;99.90
8261;DHT22;64115;50.170;8.242;2023-02-23T02:58:24;7.60;99.90
8261;DHT22;64115;50.170;8.242;2023-02-23T03:00:52;7.70;99.90
8261;DHT22;64115;50.170;8.242;2023-02-23T03:03:38;7.70;99.90
8261;DHT22;64115;50.170;8.242;2023-02-23T03:06:26;7.70;99.90
8261;DHT22;64115;50.170;8.242;2023-02-23T03:09:24;7.70;99.90
8261;DHT22;64115;50.170;8.242;2023-02-23T03:12:14;7.60;99.90
8261;DHT22;64115;50.170;8.242;2023-02-23T03:15:17;7.60;99.90
8261;DHT22;64115;50.170;8.242;2023-02-23T03:18:14;7.60;99.90
8261;DHT22;64115;50.170;8.242;2023-02-23T03:21:06;7.60;99.90
8261;DHT22;64115;50.170;8.242;2023-02-23T03:24:02;7.60;99.90
8261;DHT22;64115;50.170;8.242;2023-02-23T03:26:54;7.60;99.90
8261;DHT22;64115;50.170;8.242;2023-02-23T03:29:46;7.60;99.90
8261;DHT22;64115;50.170;8.242;2023-02-23T03:32:38;7.60;99.90
8261;DHT22;64115;50.170;8.242;2023-02-23T03:35:27;7.70;99.90
8261;DHT22;64115;50.170;8.242;2023-02-23T03:38:17;7.60;99.90
8261;DHT22;64115;50.170;8.242;2023-02-23T03:41:07;7.70;99.90
8261;DHT22;64115;50.170;8.242;2023-02-23T03:43:57;7.70;99.90
8261;DHT22;64115;50.170;8.242;2023-02-23T03:46:46;7.80;99.90
8261;DHT22;64115;50.170;8.242;2023-02-23T03:49:33;7.70;99.90
8261;DHT22;64115;50.170;8.242;2023-02-23T03:52:21;7.70;99.90
8261;DHT22;64115;50.170;8.242;2023-02-23T03:55:11;7.70;99.90
8261;DHT22;64115;50.170;8.242;2023-02-23T03:58:00;7.80;99.90
8261;DHT22;64115;50.170;8.242;2023-02-23T04:00:48;7.80;99.90
8261;DHT22;64115;50.170;8.242;2023-02-23T04:03:37;7.80;99.90
8261;DHT22;64115;50.170;8.242;2023-02-23T04:06:25;7.80;99.90
8261;DHT22;64115;50.170;8.242;2023-02-23T04:09:11;7.80;99.90
8261;DHT22;64115;50.170;8.242;2023-02-23T04:12:00;7.80;99.90
8261;DHT22;64115;50.170;8.242;2023-02-23T04:14:53;7.70;99.90
8261;DHT22;64115;50.170;8.242;2023-02-23T04:17:23;7.70;99.90
8261;DHT22;64115;50.170;8.242;2023-02-23T04:19:52;7.70;99.90
8261;DHT22;64115;50.170;8.242;2023-02-23T04:22:21;7.70;99.90
8261;DHT22;64115;50.170;8.242;2023-02-23T04:24:49;7.80;99.90
8261;DHT22;64115;50.170;8.242;2023-02-23T04:27:17;7.80;99.90
8261;DHT22;64115;50.170;8.242;2023-02-23T04:29:47;7.70;99.90
8261;DHT22;64115;50.170;8.242;2023-02-23T04:32:15;7.70;99.90
8261;DHT22;64115;50.170;8.242;2023-02-23T04:34:44;7.70;99.90
8261;DHT22;64115;50.170;8.242;2023-02-23T04:37:12;7.70;99.90
8261;DHT22;64115;50.170;8.242;2023-02-23T04:39:39;7.80;99.90
8261;DHT22;64115;50.170;8.242;2023-02-23T04:42:07;7.80;99.90
8261;DHT22;64115;50.170;8.242;2023-02-23T04:44:34;7.70;99.90
8261;DHT22;64115;50.170;8.242;2023-02-23T04:47:02;7.70;99.90
8261;DHT22;64115;50.170;8.242;2023-02-23T04:49:28;7.70;99.90
8261;DHT22;64115;50.170;8.242;2023-02-23T04:51:57;7.70;99.90
8261;DHT22;64115;50.170;8.242;2023-02-23T04:54:24;7.70;99.90
8261;DHT22;64115;50.170;8.242;2023-02-23T04:56:51;7.70;99.90
8261;DHT22;64115;50.170;8.242;2023-02-23T04:59:18;7.60;99.90
8261;DHT22;64115;50.170;8.242;2023-02-23T05:01:45;7.60;99.90
8261;DHT22;64115;50.170;8.242;2023-02-23T05:04:12;7.60;99.90
8261;DHT22;64115;50.170;8.242;2023-02-23T05:06:39;7.60;99.90
8261;DHT22;64115;50.170;8.242;2023-02-23T05:09:09;7.60;99.90
8261;DHT22;64115;50.170;8.242;2023-02-23T05:11:36;7.60;99.90
8261;DHT22;64115;50.170;8.242;2023-02-23T05:14:03;7.60;99.90
8261;DHT22;64115;50.170;8.242;2023-02-23T05:16:30;7.60;99.90
8261;DHT22;64115;50.170;8.242;2023-02-23T05:18:57;7.60;99.90
8261;DHT22;64115;50.170;8.242;2023-02-23T05:21:25;7.60;99.90
8261;DHT22;64115;50.170;8.242;2023-02-23T05:23:52;7.60;99.90
8261;DHT22;64115;50.170;8.242;2023-02-23T05:26:20;7.60;99.90
8261;DHT22;64115;50.170;8.242;2023-02-23T05:28:47;7.60;99.90
8261;DHT22;64115;50.170;8.242;2023-02-23T05:31:14;7.60;99.90
8261;DHT22;64115;50.170;8.242;2023-02-23T05:33:41;7.70;99.90
8261;DHT22;64115;50.170;8.242;2023-02-23T05:36:10;7.70;99.90
8261;DHT22;64115;50.170;8.242;2023-02-23T05:38:38;7.70;99.90
8261;DHT22;64115;50.170;8.242;2023-02-23T05:41:05;7.70;99.90
8261;DHT22;64115;50.170;8.242;2023-02-23T05:43:34;7.60;99.90
8261;DHT22;64115;50.170;8.242;2023-02-23T05:46:05;7.70;99.90
8261;DHT22;64115;50.170;8.242;2023-02-23T05:48:32;7.70;99.90
8261;DHT22;64115;50.170;8.242;2023-02-23T05:51:01;7.70;99.90
8261;DHT22;64115;50.170;8.242;2023-02-23T05:53:28;7.60;99.90
8261;DHT22;64115;50.170;8.242;2023-02-23T05:55:55;7.70;99.90
8261;DHT22;64115;50.170;8.242;2023-02-23T05:58:22;7.60;99.90
8261;DHT22;64115;50.170;8.242;2023-02-23T06:00:51;7.70;99.90
8261;DHT22;64115;50.170;8.242;2023-02-23T06:03:19;7.70;99.90
8261;DHT22;64115;50.170;8.242;2023-02-23T06:05:49;7.60;99.90
8261;DHT22;64115;50.170;8.242;2023-02-23T06:08:17;7.60;99.90
8261;DHT22;64115;50.170;8.242;2023-02-23T06:10:44;7.60;99.90
8261;DHT22;64115;50.170;8.242;2023-02-23T06:13:12;7.60;99.90
8261;DHT22;64115;50.170;8.242;2023-02-23T06:15:39;7.60;99.90
8261;DHT22;64115;50.170;8.242;2023-02-23T06:18:08;7.60;99.90
8261;DHT22;64115;50.170;8.242;2023-02-23T06:20:35;7.70;99.90
8261;DHT22;64115;50.170;8.242;2023-02-23T06:23:03;7.70;99.90
8261;DHT22;64115;50.170;8.242;2023-02-23T06:25:32;7.70;99.90
8261;DHT22;64115;50.170;8.242;2023-02-23T06:27:59;7.70;99.90
8261;DHT22;64115;50.170;8.242;2023-02-23T06:30:26;7.70;99.90
8261;DHT22;64115;50.170;8.242;2023-02-23T06:32:53;7.60;99.90
8261;DHT22;64115;50.170;8.242;2023-02-23T06:35:22;7.60;99.90
8261;DHT22;64115;50.170;8.242;2023-02-23T06:37:49;7.60;99.90
8261;DHT22;64115;50.170;8.242;2023-02-23T06:40:17;7.70;99.90
8261;DHT22;64115;50.170;8.242;2023-02-23T06:42:44;7.60;99.90
8261;DHT22;64115;50.170;8.242;2023-02-23T06:45:11;7.60;99.90
8261;DHT22;64115;50.170;8.242;2023-02-23T06:47:39;7.70;99.90
8261;DHT22;64115;50.170;8.242;2023-02-23T06:50:07;7.70;99.90
8261;DHT22;64115;50.170;8.242;2023-02-23T06:52:36;7.70;99.90
8261;DHT22;64115;50.170;8.242;2023-02-23T06:55:03;7.70;99.90
8261;DHT22;64115;50.170;8.242;2023-02-23T06:57:31;7.80;99.90
8261;DHT22;64115;50.170;8.242;2023-02-23T06:59:58;7.80;99.90
8261;DHT22;64115;50.170;8.242;2023-02-23T07:02:26;7.80;99.90
8261;DHT22;64115;50.170;8.242;2023-02-23T07:04:53;7.80;99.90
8261;DHT22;64115;50.170;8.242;2023-02-23T07:07:20;7.80;99.90
8261;DHT22;64115;50.170;8.242;2023-02-23T07:09:48;7.70;99.90
8261;DHT22;64115;50.170;8.242;2023-02-23T07:12:16;7.70;99.90
8261;DHT22;64115;50.170;8.242;2023-02-23T07:14:43;7.80;99.90
8261;DHT22;64115;50.170;8.242;2023-02-23T07:17:09;7.80;99.90
8261;DHT22;64115;50.170;8.242;2023-02-23T07:19:36;7.80;99.90
8261;DHT22;64115;50.170;8.242;2023-02-23T07:22:03;7.90;99.90
8261;DHT22;64115;50.170;8.242;2023-02-23T07:24:30;7.90;99.90
8261;DHT22;64115;50.170;8.242;2023-02-23T07:26:59;7.90;99.90
8261;DHT22;64115;50.170;8.242;2023-02-23T07:29:26;7.90;99.90
8261;DHT22;64115;50.170;8.242;2023-02-23T07:31:53;8.00;99.90
8261;DHT22;64115;50.170;8.242;2023-02-23T07:34:20;8.00;99.90
8261;DHT22;64115;50.170;8.242;2023-02-23T07:36:47;8.10;99.90
8261;DHT22;64115;50.170;8.242;2023-02-23T07:39:15;8.10;99.90
8261;DHT22;64115;50.170;8.242;2023-02-23T07:41:42;8.10;99.90
8261;DHT22;64115;50.170;8.242;2023-02-23T07:44:10;8.10;99.90
8261;DHT22;64115;50.170;8.242;2023-02-23T07:46:37;8.20;99.90
8261;DHT22;64115;50.170;8.242;2023-02-23T07:49:06;8.20;99.90
8261;DHT22;64115;50.170;8.242;2023-02-23T07:51:34;8.20;99.90
8261;DHT22;64115;50.170;8.242;2023-02-23T07:54:02;8.30;99.90
8261;DHT22;64115;50.170;8.242;2023-02-23T07:56:29;8.30;99.90
8261;DHT22;64115;50.170;8.242;2023-02-23T07:58:57;8.20;99.90
8261;DHT22;64115;50.170;8.242;2023-02-23T08:01:25;8.30;99.90
8261;DHT22;64115;50.170;8.242;2023-02-23T08:03:52;8.30;99.90
8261;DHT22;64115;50.170;8.242;2023-02-23T08:06:19;8.30;99.90
8261;DHT22;64115;50.170;8.242;2023-02-23T08:08:46;8.40;99.90
8261;DHT22;64115;50.170;8.242;2023-02-23T08:11:13;8.40;99.90
8261;DHT22;64115;50.170;8.242;2023-02-23T08:13:41;8.40;99.90
8261;DHT22;64115;50.170;8.242;2023-02-23T08:16:08;8.30;99.90
8261;DHT22;64115;50.170;8.242;2023-02-23T08:18:38;8.40;99.90
8261;DHT22;64115;50.170;8.242;2023-02-23T08:21:05;8.30;99.90
8261;DHT22;64115;50.170;8.242;2023-02-23T08:23:33;8.30;99.90
8261;DHT22;64115;50.170;8.242;2023-02-23T08:26:01;8.30;99.90
8261;DHT22;64115;50.170;8.242;2023-02-23T08:28:29;8.20;99.90
8261;DHT22;64115;50.170;8.242;2023-02-23T08:30:56;8.20;99.90
8261;DHT22;64115;50.170;8.242;2023-02-23T08:33:45;8.20;99.90
8261;DHT22;64115;50.170;8.242;2023-02-23T08:36:12;8.20;99.90
8261;DHT22;64115;50.170;8.242;2023-02-23T08:38:39;8.30;99.90
8261;DHT22;64115;50.170;8.242;2023-02-23T08:41:06;8.40;99.90
8261;DHT22;64115;50.170;8.242;2023-02-23T08:43:33;8.40;99.90
8261;DHT22;64115;50.170;8.242;2023-02-23T08:46:00;8.30;99.90
8261;DHT22;64115;50.170;8.242;2023-02-23T08:48:27;8.30;99.90
8261;DHT22;64115;50.170;8.242;2023-02-23T08:50:59;8.30;99.90
8261;DHT22;64115;50.170;8.242;2023-02-23T08:53:26;8.30;99.90
8261;DHT22;64115;50.170;8.242;2023-02-23T08:55:57;8.40;99.90
8261;DHT22;64115;50.170;8.242;2023-02-23T08:58:25;8.40;99.90
8261;DHT22;64115;50.170;8.242;2023-02-23T09:00:52;8.40;99.90
8261;DHT22;64115;50.170;8.242;2023-02-23T09:03:19;8.50;99.90
8261;DHT22;64115;50.170;8.242;2023-02-23T09:05:46;8.60;99.90
8261;DHT22;64115;50.170;8.242;2023-02-23T09:08:15;8.80;99.90
8261;DHT22;64115;50.170;8.242;2023-02-23T09:10:42;8.90;99.90
8261;DHT22;64115;50.170;8.242;2023-02-23T09:13:09;9.00;99.90
8261;DHT22;64115;50.170;8.242;2023-02-23T09:15:37;9.10;99.90
8261;DHT22;64115;50.170;8.242;2023-02-23T09:18:05;9.20;99.90
8261;DHT22;64115;50.170;8.242;2023-02-23T09:20:32;9.40;99.90
8261;DHT22;64115;50.170;8.242;2023-02-23T09:22:59;9.60;99.90
8261;DHT22;64115;50.170;8.242;2023-02-23T09:25:28;9.80;99.90
8261;DHT22;64115;50.170;8.242;2023-02-23T09:27:56;9.90;99.90
8261;DHT22;64115;50.170;8.242;2023-02-23T09:30:24;9.90;99.90
8261;DHT22;64115;50.170;8.242;2023-02-23T09:32:53;9.90;99.90
8261;DHT22;64115;50.170;8.242;2023-02-23T09:35:23;9.80;99.90
8261;DHT22;64115;50.170;8.242;2023-02-23T09:37:52;9.80;99.90
8261;DHT22;64115;50.170;8.242;2023-02-23T09:40:23;9.80;99.90
8261;DHT22;64115;50.170;8.242;2023-02-23T09:43:00;9.80;99.90
8261;DHT22;64115;50.170;8.242;2023-02-23T09:45:35;9.80;99.90
8261;DHT22;64115;50.170;8.242;2023-02-23T09:48:15;9.80;99.90
8261;DHT22;64115;50.170;8.242;2023-02-23T09:50:47;9.80;99.90
8261;DHT22;64115;50.170;8.242;2023-02-23T09:56:13;9.90;99.90
8261;DHT22;64115;50.170;8.242;2023-02-23T09:58:44;10.10;99.90
8261;DHT22;64115;50.170;8.242;2023-02-23T10:01:40;10.10;99.90
8261;DHT22;64115;50.170;8.242;2023-02-23T10:04:15;10.10;99.90
8261;DHT22;64115;50.170;8.242;2023-02-23T10:06:49;10.20;99.90
8261;DHT22;64115;50.170;8.242;2023-02-23T10:09:25;10.30;99.90
8261;DHT22;64115;50.170;8.242;2023-02-23T10:11:59;10.50;99.90
8261;DHT22;64115;50.170;8.242;2023-02-23T10:14:55;10.60;99.90
8261;DHT22;64115;50.170;8.242;2023-02-23T10:17:34;10.50;99.90
8261;DHT22;64115;50.170;8.242;2023-02-23T10:20:12;10.40;99.90
8261;DHT22;64115;50.170;8.242;2023-02-23T10:22:40;10.40;99.90
8261;DHT22;64115;50.170;8.242;2023-02-23T10:25:11;10.40;99.90
8261;DHT22;64115;50.170;8.242;2023-02-23T10:27:44;10.40;99.90
8261;DHT22;64115;50.170;8.242;2023-02-23T10:30:17;10.40;99.90
8261;DHT22;64115;50.170;8.242;2023-02-23T10:32:51;10.40;99.90
8261;DHT22;64115;50.170;8.242;2023-02-23T10:35:21;10.50;99.90
8261;DHT22;64115;50.170;8.242;2023-02-23T10:37:50;10.50;99.90
8261;DHT22;64115;50.170;8.242;2023-02-23T10:40:20;10.50;99.90
8261;DHT22;64115;50.170;8.242;2023-02-23T10:42:48;10.60;99.90
8261;DHT22;64115;50.170;8.242;2023-02-23T10:45:19;10.50;99.90
8261;DHT22;64115;50.170;8.242;2023-02-23T10:47:54;10.50;99.90
8261;DHT22;64115;50.170;8.242;2023-02-23T10:50:23;10.30;99.90
8261;DHT22;64115;50.170;8.242;2023-02-23T10:52:55;10.20;99.90
8261;DHT22;64115;50.170;8.242;2023-02-23T10:55:26;10.10;99.90
8261;DHT22;64115;50.170;8.242;2023-02-23T10:58:07;10.00;99.90
8261;DHT22;64115;50.170;8.242;2023-02-23T11:00:49;10.00;99.90
8261;DHT22;64115;50.170;8.242;2023-02-23T11:03:21;10.00;99.90
8261;DHT22;64115;50.170;8.242;2023-02-23T11:05:49;10.00;99.90
8261;DHT22;64115;50.170;8.242;2023-02-23T11:08:20;10.00;99.90
8261;DHT22;64115;50.170;8.242;2023-02-23T11:11:06;10.00;99.90
8261;DHT22;64115;50.170;8.242;2023-02-23T11:13:38;9.90;99.90
8261;DHT22;64115;50.170;8.242;2023-02-23T11:16:13;9.90;99.90
8261;DHT22;64115;50.170;8.242;2023-02-23T11:18:42;9.80;99.90
8261;DHT22;64115;50.170;8.242;2023-02-23T11:21:20;9.70;99.90
8261;DHT22;64115;50.170;8.242;2023-02-23T11:23:49;9.50;99.90
8261;DHT22;64115;50.170;8.242;2023-02-23T11:26:22;9.40;99.90
8261;DHT22;64115;50.170;8.242;2023-02-23T11:28:54;9.30;99.90
8261;DHT22;64115;50.170;8.242;2023-02-23T11:31:29;9.20;99.90
8261;DHT22;64115;50.170;8.242;2023-02-23T11:34:00;9.20;99.90
8261;DHT22;64115;50.170;8.242;2023-02-23T11:36:30;9.10;99.90
8261;DHT22;64115;50.170;8.242;2023-02-23T11:39:03;9.10;99.90
8261;DHT22;64115;50.170;8.242;2023-02-23T11:41:31;9.00;99.90
8261;DHT22;64115;50.170;8.242;2023-02-23T11:44:00;8.90;99.90
8261;DHT22;64115;50.170;8.242;2023-02-23T11:46:31;8.80;99.90
8261;DHT22;64115;50.170;8.242;2023-02-23T11:49:00;8.80;99.90
8261;DHT22;64115;50.170;8.242;2023-02-23T11:51:30;8.80;99.90
8261;DHT22;64115;50.170;8.242;2023-02-23T11:53:58;8.80;99.90
8261;DHT22;64115;50.170;8.242;2023-02-23T11:56:27;8.70;99.90
8261;DHT22;64115;50.170;8.242;2023-02-23T11:58:57;8.70;99.90
8261;DHT22;64115;50.170;8.242;2023-02-23T12:01:37;8.70;99.90
8261;DHT22;64115;50.170;8.242;2023-02-23T12:04:11;8.70;99.90
8261;DHT22;64115;50.170;8.242;2023-02-23T12:06:50;8.80;99.90
8261;DHT22;64115;50.170;8.242;2023-02-23T12:09:30;8.80;99.90
8261;DHT22;64115;50.170;8.242;2023-02-23T12:12:01;8.90;99.90
8261;DHT22;64115;50.170;8.242;2023-02-23T12:14:32;9.00;99.90
8261;DHT22;64115;50.170;8.242;2023-02-23T12:17:07;9.20;99.90
8261;DHT22;64115;50.170;8.242;2023-02-23T12:19:44;9.30;99.90
8261;DHT22;64115;50.170;8.242;2023-02-23T12:22:17;9.60;99.90
8261;DHT22;64115;50.170;8.242;2023-02-23T12:24:50;9.90;99.90
8261;DHT22;64115;50.170;8.242;2023-02-23T12:27:22;10.00;99.90
8261;DHT22;64115;50.170;8.242;2023-02-23T12:30:02;10.10;99.90
8261;DHT22;64115;50.170;8.242;2023-02-23T12:32:44;10.30;99.90
8261;DHT22;64115;50.170;8.242;2023-02-23T12:35:15;10.60;99.90
8261;DHT22;64115;50.170;8.242;2023-02-23T12:37:49;10.70;99.90
8261;DHT22;64115;50.170;8.242;2023-02-23T12:40:23;10.70;99.90
8261;DHT22;64115;50.170;8.242;2023-02-23T12:42:58;10.60;99.90
8261;DHT22;64115;50.170;8.242;2023-02-23T12:45:33;10.40;99.90
8261;DHT22;64115;50.170;8.242;2023-02-23T12:48:16;10.30;99.90
8261;DHT22;64115;50.170;8.242;2023-02-23T12:50:50;10.30;99.90
8261;DHT22;64115;50.170;8.242;2023-02-23T12:53:20;10.10;99.90
8261;DHT22;64115;50.170;8.242;2023-02-23T12:56:03;10.10;99.90
8261;DHT22;64115;50.170;8.242;2023-02-23T12:58:40;10.20;99.90
8261;DHT22;64115;50.170;8.242;2023-02-23T13:01:11;10.30;99.90
8261;DHT22;64115;50.170;8.242;2023-02-23T13:07:08;10.40;99.90
8261;DHT22;64115;50.170;8.242;2023-02-23T13:09:44;10.40;99.90
8261;DHT22;64115;50.170;8.242;2023-02-23T13:12:24;10.10;99.90
8261;DHT22;64115;50.170;8.242;2023-02-23T13:15:00;9.90;99.90
8261;DHT22;64115;50.170;8.242;2023-02-23T13:17:37;9.60;99.90
8261;DHT22;64115;50.170;8.242;2023-02-23T13:20:14;9.50;99.90
8261;DHT22;64115;50.170;8.242;2023-02-23T13:22:47;9.40;99.90
8261;DHT22;64115;50.170;8.242;2023-02-23T13:25:26;9.30;99.90
8261;DHT22;64115;50.170;8.242;2023-02-23T13:27:57;9.20;99.90
8261;DHT22;64115;50.170;8.242;2023-02-23T13:30:27;9.10;99.90
8261;DHT22;64115;50.170;8.242;2023-02-23T13:32:57;9.10;99.90
8261;DHT22;64115;50.170;8.242;2023-02-23T13:35:25;9.10;99.90
8261;DHT22;64115;50.170;8.242;2023-02-23T13:38:01;9.10;99.90
8261;DHT22;64115;50.170;8.242;2023-02-23T13:40:33;9.00;99.90
8261;DHT22;64115;50.170;8.242;2023-02-23T13:43:11;9.00;99.90
8261;DHT22;64115;50.170;8.242;2023-02-23T13:45:57;9.00;99.90
8261;DHT22;64115;50.170;8.242;2023-02-23T13:48:46;8.90;99.90
8261;DHT22;64115;50.170;8.242;2023-02-23T13:51:20;9.00;99.90
8261;DHT22;64115;50.170;8.242;2023-02-23T13:54:01;9.10;99.90
8261;DHT22;64115;50.170;8.242;2023-02-23T13:56:33;9.20;99.90
8261;DHT22;64115;50.170;8.242;2023-02-23T13:59:06;9.10;99.90
8261;DHT22;64115;50.170;8.242;2023-02-23T14:01:37;9.00;99.90
8261;DHT22;64115;50.170;8.242;2023-02-23T14:04:06;9.20;99.90
8261;DHT22;64115;50.170;8.242;2023-02-23T14:06:40;9.30;99.90
8261;DHT22;64115;50.170;8.242;2023-02-23T14:09:22;9.60;99.90
8261;DHT22;64115;50.170;8.242;2023-02-23T14:11:51;9.80;99.90
8261;DHT22;64115;50.170;8.242;2023-02-23T14:14:39;9.90;99.90
8261;DHT22;64115;50.170;8.242;2023-02-23T14:17:09;9.80;99.90
8261;DHT22;64115;50.170;8.242;2023-02-23T14:19:43;9.90;99.90
8261;DHT22;64115;50.170;8.242;2023-02-23T14:22:13;9.80;99.90
8261;DHT22;64115;50.170;8.242;2023-02-23T14:24:43;9.70;99.90
8261;DHT22;64115;50.170;8.242;2023-02-23T14:27:21;9.60;99.90
8261;DHT22;64115;50.170;8.242;2023-02-23T14:30:11;9.60;99.90
8261;DHT22;64115;50.170;8.242;2023-02-23T14:32:39;9.60;99.90
8261;DHT22;64115;50.170;8.242;2023-02-23T14:37:59;9.70;99.90
8261;DHT22;64115;50.170;8.242;2023-02-23T14:40:31;9.80;99.90
8261;DHT22;64115;50.170;8.242;2023-02-23T14:43:01;9.80;99.90
8261;DHT22;64115;50.170;8.242;2023-02-23T14:45:31;9.90;99.90
8261;DHT22;64115;50.170;8.242;2023-02-23T14:48:05;10.00;99.90
8261;DHT22;64115;50.170;8.242;2023-02-23T14:50:35;9.90;99.90
8261;DHT22;64115;50.170;8.242;2023-02-23T14:53:06;9.90;99.90
8261;DHT22;64115;50.170;8.242;2023-02-23T14:55:40;9.80;99.90
8261;DHT22;64115;50.170;8.242;2023-02-23T14:58:21;9.80;99.90
8261;DHT22;64115;50.170;8.242;2023-02-23T15:00:48;9.90;99.90
8261;DHT22;64115;50.170;8.242;2023-02-23T15:03:16;9.80;99.90
8261;DHT22;64115;50.170;8.242;2023-02-23T15:05:45;9.90;99.90
8261;DHT22;64115;50.170;8.242;2023-02-23T15:08:15;9.80;99.90
8261;DHT22;64115;50.170;8.242;2023-02-23T15:10:46;9.70;99.90
8261;DHT22;64115;50.170;8.242;2023-02-23T15:13:25;9.70;99.90
8261;DHT22;64115;50.170;8.242;2023-02-23T15:15:52;9.60;99.90
8261;DHT22;64115;50.170;8.242;2023-02-23T15:18:23;9.50;99.90
8261;DHT22;64115;50.170;8.242;2023-02-23T15:20:53;9.50;99.90
8261;DHT22;64115;50.170;8.242;2023-02-23T15:23:20;9.50;99.90
8261;DHT22;64115;50.170;8.242;2023-02-23T15:25:50;9.40;99.90
8261;DHT22;64115;50.170;8.242;2023-02-23T15:28:33;9.30;99.90
8261;DHT22;64115;50.170;8.242;2023-02-23T15:31:01;9.20;99.90
8261;DHT22;64115;50.170;8.242;2023-02-23T15:33:29;9.20;99.90
8261;DHT22;64115;50.170;8.242;2023-02-23T15:36:02;9.20;99.90
8261;DHT22;64115;50.170;8.242;2023-02-23T15:38:34;9.20;99.90
8261;DHT22;64115;50.170;8.242;2023-02-23T15:41:13;9.10;99.90
8261;DHT22;64115;50.170;8.242;2023-02-23T15:43:43;9.10;99.90
8261;DHT22;64115;50.170;8.242;2023-02-23T15:46:18;9.00;99.90
8261;DHT22;64115;50.170;8.242;2023-02-23T15:48:49;8.90;99.90
8261;DHT22;64115;50.170;8.242;2023-02-23T15:51:23;8.90;99.90
8261;DHT22;64115;50.170;8.242;2023-02-23T15:53:51;8.90;99.90
8261;DHT22;64115;50.170;8.242;2023-02-23T15:56:23;8.90;99.90
8261;DHT22;64115;50.170;8.242;2023-02-23T15:58:51;9.00;99.90
8261;DHT22;64115;50.170;8.242;2023-02-23T16:01:21;8.90;99.90
8261;DHT22;64115;50.170;8.242;2023-02-23T16:03:58;8.90;99.90
8261;DHT22;64115;50.170;8.242;2023-02-23T16:06:31;8.80;99.90
8261;DHT22;64115;50.170;8.242;2023-02-23T16:08:59;8.80;99.90
8261;DHT22;64115;50.170;8.242;2023-02-23T16:11:34;8.80;99.90
8261;DHT22;64115;50.170;8.242;2023-02-23T16:14:02;8.70;99.90
8261;DHT22;64115;50.170;8.242;2023-02-23T16:16:33;8.70;99.90
8261;DHT22;64115;50.170;8.242;2023-02-23T16:19:01;8.60;99.90
8261;DHT22;64115;50.170;8.242;2023-02-23T16:21:30;8.60;99.90
8261;DHT22;64115;50.170;8.242;2023-02-23T16:23:58;8.60;99.90
8261;DHT22;64115;50.170;8.242;2023-02-23T16:26:40;8.50;99.90
8261;DHT22;64115;50.170;8.242;2023-02-23T16:29:13;8.40;99.90
8261;DHT22;64115;50.170;8.242;2023-02-23T16:31:45;8.30;99.90
8261;DHT22;64115;50.170;8.242;2023-02-23T16:34:19;8.30;99.90
8261;DHT22;64115;50.170;8.242;2023-02-23T16:36:49;8.20;99.90
8261;DHT22;64115;50.170;8.242;2023-02-23T16:39:17;8.10;99.90
8261;DHT22;64115;50.170;8.242;2023-02-23T16:41:45;8.10;99.90
8261;DHT22;64115;50.170;8.242;2023-02-23T16:44:16;8.00;99.90
8261;DHT22;64115;50.170;8.242;2023-02-23T16:46:57;8.00;99.90
8261;DHT22;64115;50.170;8.242;2023-02-23T16:49:35;8.00;99.90
8261;DHT22;64115;50.170;8.242;2023-02-23T16:52:05;8.00;99.90